createdAt,value
2018-05-27T00:00:04.973Z,28.5
2018-05-27T00:02:07.441Z,28.5
2018-05-27T00:04:05.102Z,28.4
2018-05-27T00:06:04.851Z,28.5
2018-05-27T00:08:10.648Z,28.4
2018-05-27T00:10:12.887Z,28.5
2018-05-27T00:12:05.625Z,28.4
2018-05-27T00:14:05.377Z,28.4
2018-05-27T00:16:04.670Z,28.5
2018-05-27T00:18:05.564Z,28.5
2018-05-27T00:20:05.260Z,28.5
2018-05-27T00:22:07.493Z,28.5
2018-05-27T00:24:05.210Z,28.4
2018-05-27T00:26:05.441Z,28.5
2018-05-27T00:28:05.216Z,28.5
2018-05-27T00:30:04.860Z,28.5
2018-05-27T00:32:05.571Z,28.5
2018-05-27T00:34:12.896Z,28.4
2018-05-27T00:36:08.084Z,28.4
2018-05-27T00:38:04.797Z,28.4
2018-05-27T00:40:05.489Z,28.5
2018-05-27T00:42:10.274Z,28.4
2018-05-27T00:44:04.982Z,28.4
2018-05-27T00:46:10.319Z,28.4
2018-05-27T00:48:04.989Z,28.4
2018-05-27T00:50:04.677Z,28.4
2018-05-27T00:52:07.958Z,28.5
2018-05-27T00:54:04.605Z,28.4
2018-05-27T00:56:07.800Z,28.5
2018-05-27T00:58:05.545Z,28.4
2018-05-27T01:00:05.251Z,28.4
2018-05-27T01:02:05.039Z,28.5
2018-05-27T01:04:07.327Z,28.4
2018-05-27T01:06:05.076Z,28.4
2018-05-27T01:08:04.796Z,28.4
2018-05-27T01:10:05.444Z,28.4
2018-05-27T01:12:07.658Z,28.4
2018-05-27T01:14:04.869Z,28.4
2018-05-27T01:16:08.127Z,28.4
2018-05-27T01:18:05.081Z,28.4
2018-05-27T01:20:07.321Z,28.3
2018-05-27T01:22:05.151Z,28.4
2018-05-27T01:24:05.375Z,28.4
2018-05-27T01:26:20.984Z,28.4
2018-05-27T01:28:04.664Z,28.3
2018-05-27T01:30:10.376Z,28.3
2018-05-27T01:32:07.700Z,28.4
2018-05-27T01:34:07.922Z,28.4
2018-05-27T01:36:05.586Z,28.4
2018-05-27T01:38:05.351Z,28.4
2018-05-27T01:40:07.550Z,28.3
2018-05-27T01:42:04.746Z,28.4
2018-05-27T01:44:05.550Z,28.3
2018-05-27T01:46:10.310Z,28.3
2018-05-27T01:48:05.286Z,28.3
2018-05-27T01:50:08.084Z,28.4
2018-05-27T01:52:04.802Z,28.3
2018-05-27T01:54:05.531Z,28.4
2018-05-27T01:56:05.240Z,28.4
2018-05-27T01:58:05.457Z,28.4
2018-05-27T02:00:10.207Z,28.3
2018-05-27T02:02:04.894Z,28.3
2018-05-27T02:04:08.140Z,28.3
2018-05-27T02:06:04.848Z,28.3
2018-05-27T02:08:08.111Z,28.4
2018-05-27T02:10:04.861Z,28.3
2018-05-27T02:12:05.564Z,28.4
2018-05-27T02:14:05.243Z,28.3
2018-05-27T02:16:04.917Z,28.3
2018-05-27T02:18:05.415Z,28.3
2018-05-27T02:20:05.123Z,28.3
2018-05-27T02:22:07.373Z,28.3
2018-05-27T02:24:05.139Z,28.3
2018-05-27T02:26:07.389Z,28.3
2018-05-27T02:28:05.138Z,28.3
2018-05-27T02:30:05.344Z,28.3
2018-05-27T02:32:04.997Z,28.3
2018-05-27T02:34:04.719Z,28.3
2018-05-27T02:36:05.680Z,28.3
2018-05-27T02:38:07.601Z,28.3
2018-05-27T02:40:05.286Z,28.3
2018-05-27T02:42:05.499Z,28.3
2018-05-27T02:44:05.260Z,28.3
2018-05-27T02:46:04.938Z,28.3
2018-05-27T02:50:50.173Z,28.3
2018-05-27T02:50:50.279Z,28.3
2018-05-27T02:52:04.973Z,28.3
2018-05-27T02:54:04.678Z,28.3
2018-05-27T02:56:05.389Z,28.3
2018-05-27T02:58:05.168Z,28.3
2018-05-27T03:00:04.897Z,28.3
2018-05-27T03:02:05.602Z,28.3
2018-05-27T03:04:05.238Z,28.3
2018-05-27T03:06:04.953Z,28.3
2018-05-27T03:08:05.012Z,28.3
2018-05-27T03:10:05.339Z,28.2
2018-05-27T03:12:05.261Z,28.3
2018-05-27T03:14:04.918Z,28.3
2018-05-27T03:16:08.134Z,28.3
2018-05-27T03:18:05.028Z,28.3
2018-05-27T03:20:04.701Z,28.3
2018-05-27T03:22:05.390Z,28.3
2018-05-27T03:24:05.068Z,28.2
2018-05-27T03:26:04.774Z,28.3
2018-05-27T03:28:05.541Z,28.2
2018-05-27T03:30:04.749Z,28.3
2018-05-27T03:32:05.439Z,28.3
2018-05-27T03:34:05.117Z,28.2
2018-05-27T03:36:04.838Z,28.3
2018-05-27T03:38:05.679Z,28.3
2018-05-27T03:40:05.481Z,28.3
2018-05-27T03:42:05.158Z,28.3
2018-05-27T03:44:05.435Z,28.3
2018-05-27T03:46:05.138Z,28.2
2018-05-27T03:48:09.935Z,28.2
2018-05-27T03:50:04.634Z,28.2
2018-05-27T03:52:12.900Z,28.2
2018-05-27T03:54:05.617Z,28.2
2018-05-27T03:56:05.337Z,28.2
2018-05-27T03:58:07.591Z,28.3
2018-05-27T04:00:05.267Z,28.2
2018-05-27T04:02:05.004Z,28.3
2018-05-27T04:04:12.805Z,28.2
2018-05-27T04:06:05.488Z,28.2
2018-05-27T04:08:05.146Z,28.2
2018-05-27T04:10:04.836Z,28.2
2018-05-27T04:12:05.103Z,28.3
2018-05-27T04:14:04.786Z,28.2
2018-05-27T04:16:08.057Z,28.3
2018-05-27T04:18:04.994Z,28.2
2018-05-27T04:20:04.792Z,28.3
2018-05-27T04:22:05.530Z,28.3
2018-05-27T04:24:10.304Z,28.2
2018-05-27T04:26:05.010Z,28.2
2018-05-27T04:28:07.263Z,28.3
2018-05-27T04:30:04.958Z,28.2
2018-05-27T04:32:04.623Z,28.3
2018-05-27T04:34:07.915Z,28.3
2018-05-27T04:36:05.618Z,28.3
2018-05-27T04:38:07.879Z,28.3
2018-05-27T04:40:05.558Z,28.3
2018-05-27T04:42:05.269Z,28.3
2018-05-27T04:44:07.525Z,28.3
2018-05-27T04:46:05.237Z,28.3
2018-05-27T04:48:04.823Z,28.3
2018-05-27T04:50:08.354Z,28.3
2018-05-27T04:52:09.852Z,28.3
2018-05-27T04:54:05.562Z,28.3
2018-05-27T04:56:07.744Z,28.3
2018-05-27T04:58:05.432Z,28.3
2018-05-27T05:00:05.097Z,28.4
2018-05-27T05:02:07.836Z,28.4
2018-05-27T05:04:05.506Z,28.4
2018-05-27T05:06:04.713Z,28.4
2018-05-27T05:08:05.428Z,28.4
2018-05-27T05:10:04.658Z,28.4
2018-05-27T05:12:05.349Z,28.5
2018-05-27T05:14:05.140Z,28.5
2018-05-27T05:16:04.861Z,28.5
2018-05-27T05:18:07.333Z,28.5
2018-05-27T05:20:05.000Z,28.5
2018-05-27T05:22:04.704Z,28.5
2018-05-27T05:24:05.003Z,28.6
2018-05-27T05:26:05.229Z,28.6
2018-05-27T05:28:04.894Z,28.5
2018-05-27T05:30:05.881Z,28.5
2018-05-27T05:32:10.657Z,28.5
2018-05-27T05:34:05.332Z,28.5
2018-05-27T05:36:05.061Z,28.6
2018-05-27T05:38:04.768Z,28.6
2018-05-27T05:40:05.453Z,28.6
2018-05-27T05:42:07.704Z,28.7
2018-05-27T05:44:05.362Z,28.7
2018-05-27T05:46:05.250Z,28.7
2018-05-27T05:48:04.948Z,28.8
2018-05-27T05:50:12.240Z,28.8
2018-05-27T05:52:05.429Z,28.8
2018-05-27T05:54:18.024Z,28.8
2018-05-27T05:56:04.701Z,28.8
2018-05-27T05:58:04.939Z,28.9
2018-05-27T06:00:08.121Z,28.8
2018-05-27T06:02:04.826Z,28.8
2018-05-27T06:04:05.572Z,28.9
2018-05-27T06:06:05.327Z,28.9
2018-05-27T06:08:05.051Z,28.9
2018-05-27T06:10:07.254Z,28.9
2018-05-27T06:12:04.908Z,28.8
2018-05-27T06:14:05.572Z,28.8
2018-05-27T06:16:05.271Z,28.9
2018-05-27T06:18:07.643Z,28.9
2018-05-27T06:20:05.348Z,28.9
2018-05-27T06:22:05.108Z,28.9
2018-05-27T06:24:04.780Z,29
2018-05-27T06:26:05.498Z,29
2018-05-27T06:28:05.008Z,29
2018-05-27T06:30:07.233Z,29.1
2018-05-27T06:32:05.630Z,29
2018-05-27T06:34:08.733Z,29.1
2018-05-27T06:36:04.749Z,29
2018-05-27T06:38:05.446Z,29
2018-05-27T06:40:04.674Z,29.1
2018-05-27T06:42:07.880Z,29.2
2018-05-27T06:44:04.980Z,29.1
2018-05-27T06:46:04.702Z,29.2
2018-05-27T06:48:05.464Z,29.2
2018-05-27T06:50:04.908Z,29.2
2018-05-27T06:52:05.031Z,29.3
2018-05-27T06:54:04.956Z,29.3
2018-05-27T06:56:04.792Z,29.3
2018-05-27T06:58:05.524Z,29.3
2018-05-27T07:00:07.975Z,29.3
2018-05-27T07:02:04.886Z,29.3
2018-05-27T07:04:05.586Z,29.3
2018-05-27T07:06:05.250Z,29.3
2018-05-27T07:08:04.981Z,29.3
2018-05-27T07:10:04.911Z,29.3
2018-05-27T07:12:08.126Z,29.3
2018-05-27T07:14:07.372Z,29.4
2018-05-27T07:16:05.193Z,29.4
2018-05-27T07:18:05.343Z,29.4
2018-05-27T07:20:05.559Z,29.4
2018-05-27T07:22:05.312Z,29.4
2018-05-27T07:24:05.073Z,29.4
2018-05-27T07:26:05.365Z,29.4
2018-05-27T07:28:05.098Z,29.4
2018-05-27T07:30:04.962Z,29.3
2018-05-27T07:32:04.658Z,29.3
2018-05-27T07:34:08.024Z,29.4
2018-05-27T07:36:07.229Z,29.3
2018-05-27T07:38:04.890Z,29.3
2018-05-27T07:40:04.627Z,29.3
2018-05-27T07:42:05.432Z,29.3
2018-05-27T07:44:13.691Z,29.3
2018-05-27T07:46:05.606Z,29.3
2018-05-27T07:48:05.263Z,29.3
2018-05-27T07:50:05.454Z,29.3
2018-05-27T07:52:07.775Z,29.3
2018-05-27T07:54:04.669Z,29.2
2018-05-27T07:56:05.383Z,29.2
2018-05-27T07:58:05.051Z,29.2
2018-05-27T08:00:05.560Z,29.2
2018-05-27T08:02:05.243Z,29.3
2018-05-27T08:04:04.944Z,29.3
2018-05-27T08:06:04.813Z,29.4
2018-05-27T08:08:05.530Z,29.5
2018-05-27T08:10:05.246Z,29.5
2018-05-27T08:12:10.118Z,29.4
2018-05-27T08:14:09.932Z,29.5
2018-05-27T08:16:04.715Z,29.4
2018-05-27T08:18:12.789Z,29.4
2018-05-27T08:20:07.957Z,29.4
2018-05-27T08:22:04.917Z,29.4
2018-05-27T08:24:04.691Z,29.5
2018-05-27T08:26:05.370Z,29.4
2018-05-27T08:28:05.061Z,29.5
2018-05-27T08:30:04.763Z,29.5
2018-05-27T08:32:05.457Z,29.5
2018-05-27T08:34:05.127Z,29.5
2018-05-27T08:36:07.339Z,29.5
2018-05-27T08:38:05.073Z,29.5
2018-05-27T08:40:07.337Z,29.5
2018-05-27T08:42:05.043Z,29.5
2018-05-27T08:44:04.752Z,29.6
2018-05-27T08:46:04.993Z,29.5
2018-05-27T08:48:04.665Z,29.5
2018-05-27T08:50:05.393Z,29.4
2018-05-27T08:52:05.058Z,29.5
2018-05-27T08:54:04.879Z,29.5
2018-05-27T08:56:05.591Z,29.4
2018-05-27T08:58:05.254Z,29.4
2018-05-27T09:00:04.992Z,29.4
2018-05-27T09:02:04.745Z,29.4
2018-05-27T09:04:05.420Z,29.4
2018-05-27T09:06:07.166Z,29.4
2018-05-27T09:08:07.906Z,29.4
2018-05-27T09:10:05.648Z,29.5
2018-05-27T09:12:07.743Z,29.4
2018-05-27T09:14:05.413Z,29.5
2018-05-27T09:16:05.089Z,29.5
2018-05-27T09:18:05.082Z,29.4
2018-05-27T09:20:04.808Z,29.4
2018-05-27T09:22:12.624Z,29.4
2018-05-27T09:24:05.294Z,29.4
2018-05-27T09:26:04.922Z,29.4
2018-05-27T09:28:05.595Z,29.4
2018-05-27T09:30:04.816Z,29.4
2018-05-27T09:32:05.107Z,29.5
2018-05-27T09:34:07.304Z,29.5
2018-05-27T09:36:08.043Z,29.5
2018-05-27T09:38:07.477Z,29.5
2018-05-27T09:40:05.424Z,29.5
2018-05-27T09:42:07.610Z,29.5
2018-05-27T09:44:04.834Z,29.5
2018-05-27T09:46:05.519Z,29.5
2018-05-27T09:48:05.211Z,29.5
2018-05-27T09:50:04.841Z,29.5
2018-05-27T09:52:05.651Z,29.5
2018-05-27T09:54:05.291Z,29.5
2018-05-27T09:56:10.098Z,29.5
2018-05-27T09:58:07.358Z,29.4
2018-05-27T10:00:05.405Z,29.4
2018-05-27T10:02:05.165Z,29.4
2018-05-27T10:04:07.390Z,29.4
2018-05-27T10:06:07.562Z,29.4
2018-05-27T10:08:05.302Z,29.4
2018-05-27T10:10:05.524Z,29.4
2018-05-27T10:12:05.217Z,29.4
2018-05-27T10:14:08.017Z,29.4
2018-05-27T10:16:07.298Z,29.3
2018-05-27T10:18:12.739Z,29.4
2018-05-27T10:20:10.603Z,29.3
2018-05-27T10:22:10.458Z,29.2
2018-05-27T10:24:05.134Z,29.2
2018-05-27T10:26:25.802Z,29.3
2018-05-27T10:28:08.031Z,29.2
2018-05-27T10:30:04.778Z,29.2
2018-05-27T10:32:08.019Z,29.2
2018-05-27T10:34:04.710Z,29.2
2018-05-27T10:36:07.957Z,29.2
2018-05-27T10:38:12.786Z,29.2
2018-05-27T10:40:05.555Z,29.2
2018-05-27T10:42:05.225Z,29.2
2018-05-27T10:44:10.001Z,29.2
2018-05-27T10:46:07.451Z,29.2
2018-05-27T10:48:05.203Z,29.1
2018-05-27T10:50:04.921Z,29.1
2018-05-27T10:52:05.195Z,29.1
2018-05-27T10:54:05.019Z,29.1
2018-05-27T10:56:07.240Z,29.1
2018-05-27T10:58:07.493Z,29.1
2018-05-27T11:00:04.709Z,29.1
2018-05-27T11:02:07.940Z,29.1
2018-05-27T11:04:04.692Z,29.1
2018-05-27T11:06:05.438Z,29.1
2018-05-27T11:08:07.675Z,29.1
2018-05-27T11:10:05.475Z,29.1
2018-05-27T11:12:05.243Z,29.1
2018-05-27T11:14:15.079Z,29.1
2018-05-27T11:16:05.560Z,29
2018-05-27T11:18:05.079Z,29
2018-05-27T11:20:07.310Z,29.1
2018-05-27T11:22:05.334Z,29
2018-05-27T11:24:07.590Z,29.1
2018-05-27T11:26:05.275Z,29
2018-05-27T11:28:10.046Z,29.1
2018-05-27T11:30:04.736Z,29.1
2018-05-27T11:32:05.469Z,29.1
2018-05-27T11:34:05.223Z,29.1
2018-05-27T11:36:04.896Z,29.1
2018-05-27T11:38:04.636Z,29.1
2018-05-27T11:40:07.426Z,29.1
2018-05-27T11:42:12.781Z,29.1
2018-05-27T11:44:05.511Z,29.1
2018-05-27T11:46:07.296Z,29.1
2018-05-27T11:48:12.617Z,29.1
2018-05-27T11:50:05.331Z,29
2018-05-27T11:52:04.815Z,29.1
2018-05-27T11:54:08.031Z,29.1
2018-05-27T11:56:05.103Z,29.1
2018-05-27T11:58:09.953Z,29
2018-05-27T12:00:04.672Z,29
2018-05-27T12:02:07.986Z,29.1
2018-05-27T12:04:07.889Z,29.1
2018-05-27T12:06:05.558Z,29
2018-05-27T12:08:05.226Z,29.1
2018-05-27T12:10:05.438Z,29.1
2018-05-27T12:12:05.088Z,29.1
2018-05-27T12:14:04.826Z,29.1
2018-05-27T12:16:05.549Z,29.1
2018-05-27T12:18:04.989Z,29.1
2018-05-27T12:20:04.770Z,29.1
2018-05-27T12:22:05.118Z,29.1
2018-05-27T12:24:07.498Z,29.1
2018-05-27T12:26:05.473Z,29
2018-05-27T12:28:05.298Z,29.1
2018-05-27T12:30:05.534Z,29.1
2018-05-27T12:32:05.353Z,29.1
2018-05-27T12:34:07.586Z,29.1
2018-05-27T12:36:05.283Z,29
2018-05-27T12:38:04.942Z,29.1
2018-05-27T12:40:04.633Z,29
2018-05-27T12:42:05.356Z,29.1
2018-05-27T12:44:05.295Z,29.1
2018-05-27T12:46:04.978Z,29.1
2018-05-27T12:48:04.712Z,29.1
2018-05-27T12:50:05.467Z,29.1
2018-05-27T12:52:05.352Z,29.1
2018-05-27T12:54:05.042Z,29.1
2018-05-27T12:56:04.689Z,29.1
2018-05-27T12:58:07.577Z,29.1
2018-05-27T13:00:05.247Z,29.1
2018-05-27T13:02:04.911Z,29.1
2018-05-27T13:04:05.594Z,29.1
2018-05-27T13:06:05.303Z,29.1
2018-05-27T13:08:07.556Z,29.1
2018-05-27T13:10:08.011Z,29.1
2018-05-27T13:12:05.233Z,29.1
2018-05-27T13:14:05.027Z,29.1
2018-05-27T13:16:04.963Z,29.1
2018-05-27T13:18:10.038Z,29.1
2018-05-27T13:20:04.710Z,29.2
2018-05-27T13:22:12.256Z,29.2
2018-05-27T13:24:05.464Z,29.1
2018-05-27T13:26:08.281Z,29.2
2018-05-27T13:28:05.210Z,29.1
2018-05-27T13:30:04.917Z,29.1
2018-05-27T13:32:07.547Z,29.2
2018-05-27T13:34:05.272Z,29.2
2018-05-27T13:36:05.150Z,29.2
2018-05-27T13:38:04.851Z,29.2
2018-05-27T13:40:08.040Z,29.2
2018-05-27T13:42:07.463Z,29.2
2018-05-27T13:44:12.928Z,29.2
2018-05-27T13:46:05.474Z,29.2
2018-05-27T13:48:05.399Z,29.2
2018-05-27T13:50:06.583Z,29.3
2018-05-27T13:52:05.318Z,29.2
2018-05-27T13:54:04.964Z,29.3
2018-05-27T13:56:07.212Z,29.3
2018-05-27T13:58:10.506Z,29.3
2018-05-27T14:00:05.183Z,29.3
2018-05-27T14:02:04.862Z,29.3
2018-05-27T14:04:05.598Z,29.3
2018-05-27T14:06:05.313Z,29.3
2018-05-27T14:08:04.708Z,29.3
2018-05-27T14:10:08.000Z,29.3
2018-05-27T14:12:05.395Z,29.3
2018-05-27T14:14:05.095Z,29.3
2018-05-27T14:16:05.122Z,29.3
2018-05-27T14:18:05.071Z,29.3
2018-05-27T14:20:07.639Z,29.3
2018-05-27T14:22:05.337Z,29.3
2018-05-27T14:24:05.038Z,29.4
2018-05-27T14:26:12.311Z,29.4
2018-05-27T14:28:04.942Z,29.4
2018-05-27T14:30:04.611Z,29.4
2018-05-27T14:32:04.975Z,29.4
2018-05-27T14:34:08.011Z,29.4
2018-05-27T14:36:12.547Z,29.4
2018-05-27T14:38:04.832Z,29.4
2018-05-27T14:40:05.604Z,29.4
2018-05-27T14:42:05.313Z,29.4
2018-05-27T14:44:05.027Z,29.4
2018-05-27T14:46:04.763Z,29.4
2018-05-27T14:48:05.481Z,29.4
2018-05-27T14:50:07.759Z,29.4
2018-05-27T14:52:05.295Z,29.4
2018-05-27T14:54:05.579Z,29.4
2018-05-27T14:56:07.778Z,29.4
2018-05-27T14:58:08.007Z,29.4
2018-05-27T15:00:04.681Z,29.4
2018-05-27T15:02:05.504Z,29.4
2018-05-27T15:04:05.260Z,29.4
2018-05-27T15:06:05.151Z,29.4
2018-05-27T15:08:04.920Z,29.4
2018-05-27T15:10:07.143Z,29.4
2018-05-27T15:12:04.812Z,29.4
2018-05-27T15:14:07.169Z,29.4
2018-05-27T15:16:09.908Z,29.4
2018-05-27T15:18:09.905Z,29.4
2018-05-27T15:20:08.143Z,29.4
2018-05-27T15:22:04.874Z,29.4
2018-05-27T15:24:05.282Z,29.4
2018-05-27T15:26:05.085Z,29.3
2018-05-27T15:28:04.902Z,29.3
2018-05-27T15:30:04.812Z,29.3
2018-05-27T15:32:05.639Z,29.3
2018-05-27T15:34:07.948Z,29.3
2018-05-27T15:36:05.169Z,29.3
2018-05-27T15:38:04.886Z,29.3
2018-05-27T15:40:05.622Z,29.3
2018-05-27T15:42:05.319Z,29.2
2018-05-27T15:44:04.992Z,29.3
2018-05-27T15:46:04.731Z,29.3
2018-05-27T15:48:05.447Z,29.3
2018-05-27T15:50:07.694Z,29.3
2018-05-27T15:52:05.404Z,29.3
2018-05-27T15:54:05.111Z,29.2
2018-05-27T15:56:04.790Z,29.2
2018-05-27T15:58:05.490Z,29.2
2018-05-27T16:00:05.157Z,29.2
2018-05-27T16:02:04.921Z,29.2
2018-05-27T16:04:08.124Z,29.2
2018-05-27T16:06:04.815Z,29.2
2018-05-27T16:08:12.708Z,29.2
2018-05-27T16:10:05.691Z,29.2
2018-05-27T16:12:05.518Z,29.2
2018-05-27T16:14:04.788Z,29.2
2018-05-27T16:16:05.072Z,29.2
2018-05-27T16:18:05.019Z,29.2
2018-05-27T16:20:04.705Z,29.2
2018-05-27T16:22:05.628Z,29.2
2018-05-27T16:24:07.846Z,29.2
2018-05-27T16:26:08.083Z,29.2
2018-05-27T16:28:05.352Z,29.2
2018-05-27T16:30:04.736Z,29.2
2018-05-27T16:32:10.509Z,29.2
2018-05-27T16:34:05.216Z,29.2
2018-05-27T16:36:04.907Z,29.2
2018-05-27T16:38:05.654Z,29.2
2018-05-27T16:40:05.351Z,29.2
2018-05-27T16:42:05.076Z,29.2
2018-05-27T16:44:04.830Z,29.2
2018-05-27T16:46:05.747Z,29.2
2018-05-27T16:48:07.957Z,29.2
2018-05-27T16:50:04.639Z,29.2
2018-05-27T16:52:04.844Z,29.2
2018-05-27T16:54:05.107Z,29.2
2018-05-27T16:56:04.910Z,29.2
2018-05-27T16:58:05.664Z,29.2
2018-05-27T17:00:05.436Z,29.2
2018-05-27T17:02:05.220Z,29.1
2018-05-27T17:04:07.438Z,29.2
2018-05-27T17:06:05.163Z,29.2
2018-05-27T17:08:09.903Z,29.1
2018-05-27T17:10:05.305Z,29.1
2018-05-27T17:12:04.987Z,29.2
2018-05-27T17:14:04.683Z,29.2
2018-05-27T17:16:05.787Z,29.2
2018-05-27T17:18:04.644Z,29.2
2018-05-27T17:20:07.811Z,29.2
2018-05-27T17:22:05.479Z,29.1
2018-05-27T17:24:17.915Z,29.1
2018-05-27T17:26:04.699Z,29.2
2018-05-27T17:28:05.444Z,29.2
2018-05-27T17:30:05.261Z,29.2
2018-05-27T17:32:12.527Z,29.1
2018-05-27T17:34:07.778Z,29.1
2018-05-27T17:36:05.552Z,29.2
2018-05-27T17:38:05.343Z,29.2
2018-05-27T17:40:12.882Z,29.2
2018-05-27T17:42:05.538Z,29.1
2018-05-27T17:44:05.254Z,29.2
2018-05-27T17:46:05.485Z,29.2
2018-05-27T17:48:05.254Z,29.2
2018-05-27T17:50:04.953Z,29.2
2018-05-27T17:52:04.715Z,29.2
2018-05-27T17:54:10.513Z,29.1
2018-05-27T17:56:07.893Z,29.2
2018-05-27T17:58:05.239Z,29.2
2018-05-27T18:00:05.041Z,29.1
2018-05-27T18:02:04.702Z,29.2
2018-05-27T18:04:05.443Z,29.1
2018-05-27T18:06:07.741Z,29.2
2018-05-27T18:08:07.993Z,29.2
2018-05-27T18:10:05.240Z,29.2
2018-05-27T18:12:04.946Z,29.2
2018-05-27T18:14:04.660Z,29.2
2018-05-27T18:16:10.474Z,29.1
2018-05-27T18:18:05.473Z,29.1
2018-05-27T18:20:04.908Z,29.1
2018-05-27T18:22:05.617Z,29.1
2018-05-27T18:24:07.878Z,29.1
2018-05-27T18:26:05.084Z,29.1
2018-05-27T18:28:07.821Z,29.1
2018-05-27T18:30:05.525Z,29.1
2018-05-27T18:32:07.886Z,29.1
2018-05-27T18:34:05.571Z,29.1
2018-05-27T18:36:05.317Z,29.1
2018-05-27T18:38:05.052Z,29.1
2018-05-27T18:40:07.472Z,29.1
2018-05-27T18:42:04.728Z,29.1
2018-05-27T18:44:05.531Z,29.1
2018-05-27T18:46:07.739Z,29.1
2018-05-27T18:48:05.423Z,29
2018-05-27T18:50:10.181Z,29.1
2018-05-27T18:52:04.854Z,29.1
2018-05-27T18:54:05.525Z,29.1
2018-05-27T18:56:05.254Z,29.1
2018-05-27T18:58:05.458Z,29.1
2018-05-27T19:00:05.326Z,29.1
2018-05-27T19:02:05.022Z,29.1
2018-05-27T19:04:05.177Z,29.1
2018-05-27T19:06:07.433Z,29.1
2018-05-27T19:08:04.891Z,29.1
2018-05-27T19:10:05.599Z,29.1
2018-05-27T19:12:07.852Z,29
2018-05-27T19:14:05.280Z,29.1
2018-05-27T19:16:04.959Z,29.1
2018-05-27T19:18:07.411Z,29.1
2018-05-27T19:20:07.733Z,29
2018-05-27T19:22:04.941Z,29
2018-05-27T19:24:07.412Z,29
2018-05-27T19:26:10.188Z,29.1
2018-05-27T19:28:07.755Z,29
2018-05-27T19:30:08.019Z,29.1
2018-05-27T19:32:04.757Z,29.1
2018-05-27T19:34:07.520Z,29
2018-05-27T19:36:07.737Z,29
2018-05-27T19:38:05.001Z,29
2018-05-27T19:40:09.746Z,29
2018-05-27T19:42:05.468Z,29
2018-05-27T19:44:07.855Z,29
2018-05-27T19:46:05.539Z,29
2018-05-27T19:48:05.367Z,29
2018-05-27T19:50:05.571Z,29
2018-05-27T19:52:05.238Z,29
2018-05-27T19:54:04.907Z,29
2018-05-27T19:56:05.622Z,29
2018-05-27T19:58:04.854Z,29
2018-05-27T20:00:05.592Z,29
2018-05-27T20:02:05.291Z,29
2018-05-27T20:04:10.260Z,29
2018-05-27T20:06:04.772Z,29
2018-05-27T20:08:05.588Z,29
2018-05-27T20:10:05.240Z,29
2018-05-27T20:12:04.915Z,29
2018-05-27T20:14:04.683Z,29
2018-05-27T20:16:07.967Z,29
2018-05-27T20:18:07.499Z,29
2018-05-27T20:20:04.825Z,29
2018-05-27T20:22:05.520Z,29
2018-05-27T20:24:10.280Z,29
2018-05-27T20:26:04.984Z,29
2018-05-27T20:28:04.685Z,28.9
2018-05-27T20:30:04.970Z,29
2018-05-27T20:32:14.818Z,28.9
2018-05-27T20:34:13.171Z,28.9
2018-05-27T20:36:07.428Z,28.9
2018-05-27T20:38:05.300Z,28.9
2018-05-27T20:40:12.604Z,28.9
2018-05-27T20:42:05.352Z,28.9
2018-05-27T20:44:05.019Z,28.9
2018-05-27T20:46:04.843Z,28.9
2018-05-27T20:48:05.509Z,28.9
2018-05-27T20:50:05.191Z,28.9
2018-05-27T20:52:04.978Z,28.9
2018-05-27T20:54:04.689Z,28.9
2018-05-27T20:56:04.930Z,28.9
2018-05-27T20:58:04.850Z,28.9
2018-05-27T21:00:05.510Z,28.9
2018-05-27T21:02:09.836Z,28.9
2018-05-27T21:04:08.120Z,28.9
2018-05-27T21:06:05.084Z,28.8
2018-05-27T21:08:04.839Z,28.9
2018-05-27T21:10:05.560Z,28.9
2018-05-27T21:12:04.860Z,28.9
2018-05-27T21:14:05.617Z,28.9
2018-05-27T21:16:04.961Z,28.9
2018-05-27T21:18:04.849Z,28.9
2018-05-27T21:20:05.559Z,28.9
2018-05-27T21:22:04.789Z,28.8
2018-05-27T21:24:10.586Z,28.9
2018-05-27T21:26:07.356Z,28.8
2018-05-27T21:28:05.032Z,28.8
2018-05-27T21:30:04.785Z,28.9
2018-05-27T21:32:05.514Z,28.9
2018-05-27T21:34:05.257Z,28.9
2018-05-27T21:36:04.968Z,28.9
2018-05-27T21:38:04.643Z,28.8
2018-05-27T21:40:05.342Z,28.9
2018-05-27T21:42:05.081Z,28.8
2018-05-27T21:44:04.776Z,28.8
2018-05-27T21:46:05.525Z,28.8
2018-05-27T21:48:05.485Z,28.8
2018-05-27T21:50:05.148Z,28.8
2018-05-27T21:52:05.374Z,28.8
2018-05-27T21:54:05.163Z,28.8
2018-05-27T21:56:04.875Z,28.8
2018-05-27T21:58:05.089Z,28.8
2018-05-27T22:00:04.822Z,28.8
2018-05-27T22:02:05.532Z,28.8
2018-05-27T22:04:05.210Z,28.8
2018-05-27T22:06:12.521Z,28.8
2018-05-27T22:08:05.214Z,28.8
2018-05-27T22:10:07.412Z,28.8
2018-05-27T22:12:05.110Z,28.8
2018-05-27T22:14:09.875Z,28.8
2018-05-27T22:16:10.717Z,28.8
2018-05-27T22:18:10.675Z,28.7
2018-05-27T22:20:05.350Z,28.7
2018-05-27T22:22:05.137Z,28.8
2018-05-27T22:24:09.939Z,28.7
2018-05-27T22:26:05.204Z,28.8
2018-05-27T22:28:04.883Z,28.7
2018-05-27T22:30:08.139Z,28.8
2018-05-27T22:32:04.842Z,28.7
2018-05-27T22:34:05.566Z,28.7
2018-05-27T22:36:05.230Z,28.8
2018-05-27T22:38:08.288Z,28.7
2018-05-27T22:40:05.169Z,28.7
2018-05-27T22:42:04.908Z,28.7
2018-05-27T22:44:05.586Z,28.7
2018-05-27T22:46:07.837Z,28.7
2018-05-27T22:48:08.129Z,28.7
2018-05-27T22:50:07.447Z,28.7
2018-05-27T22:52:07.667Z,28.7
2018-05-27T22:54:05.394Z,28.7
2018-05-27T22:56:05.514Z,28.7
2018-05-27T22:58:05.175Z,28.7
2018-05-27T23:00:04.860Z,28.7
2018-05-27T23:02:05.630Z,28.7
2018-05-27T23:04:04.800Z,28.7
2018-05-27T23:06:08.152Z,28.7
2018-05-27T23:08:05.100Z,28.7
2018-05-27T23:10:05.197Z,28.7
2018-05-27T23:12:04.898Z,28.7
2018-05-27T23:14:04.624Z,28.7
2018-05-27T23:16:07.871Z,28.7
2018-05-27T23:18:09.807Z,28.7
2018-05-27T23:20:05.493Z,28.7
2018-05-27T23:22:05.191Z,28.7
2018-05-27T23:24:04.945Z,28.7
2018-05-27T23:26:04.681Z,28.7
2018-05-27T23:28:05.483Z,28.7
2018-05-27T23:30:05.192Z,28.7
2018-05-27T23:32:04.927Z,28.7
2018-05-27T23:34:05.603Z,28.7
2018-05-27T23:36:10.393Z,28.6
2018-05-27T23:38:09.773Z,28.6
2018-05-27T23:40:05.518Z,28.6
2018-05-27T23:42:05.313Z,28.6
2018-05-27T23:44:05.005Z,28.6
2018-05-27T23:46:04.704Z,28.7
2018-05-27T23:48:05.416Z,28.7
2018-05-27T23:50:05.107Z,28.7
2018-05-27T23:52:04.809Z,28.7
2018-05-27T23:54:05.619Z,28.6
2018-05-27T23:56:05.394Z,28.7
2018-05-27T23:58:07.189Z,28.7
